Date,TemperatureHighF,TemperatureAvgF,TemperatureLowF,DewpointHighF,DewpointAvgF,DewpointLowF,HumidityHigh,HumidityAvg,HumidityLow,PressureMaxIn,PressureMinIn,WindSpeedMaxMPH,WindSpeedAvgMPH,GustSpeedMaxMPH,PrecipitationSumIn
2013-5-1,148.3,61.4,49.3,53.6,46.2,0.0,97,69,10,30.34,30.22,12,2,12,0.00
2013-5-2,87.3,64.0,42.3,51.6,35.7,0.0,100,51,40,30.36,30.25,11,1,11,0.00
2013-5-3,87.3,67.2,44.7,52.8,31.5,0.0,100,46,53,30.31,30.19,14,1,14,0.00
2013-5-4,63.9,52.5,36.5,51.0,44.2,31.4,96,74,56,30.28,30.13,16,1,16,0.00
2013-5-5,65.5,51.0,34.6,47.3,41.6,33.3,96,72,46,30.18,30.06,16,2,17,0.00
2013-5-6,55.3,52.2,47.8,54.2,49.6,43.1,98,91,75,30.11,29.96,12,2,12,0.00
2013-5-7,143.1,60.5,54.6,99.9,59.4,-90.0,100,98,94,30.00,29.91,16,4,16,0.00
2013-5-8,111.7,60.8,51.6,99.9,59.1,-90.0,100,95,82,30.07,29.89,6,2,6,0.00
2013-5-9,78.1,65.3,52.6,62.5,38.2,0.0,100,58,35,29.98,29.90,14,1,14,0.00
2013-5-10,84.0,79.8,65.3,65.2,20.9,0.0,80,20,47,30.00,29.80,10,1,10,0.00
2013-5-11,84.0,78.0,63.5,67.6,19.2,0.0,99,22,51,29.81,29.66,11,2,11,0.00
2013-5-12,75.4,62.3,41.9,40.9,21.5,0.0,69,30,30,30.01,29.72,16,2,16,0.00
2013-5-13,57.1,46.5,35.3,38.4,31.8,23.0,100,59,30,30.14,29.98,14,1,14,0.00
2013-5-14,35.7,35.7,35.7,31.9,31.9,31.9,86,86,86,30.17,30.13,0,0,0,0.00
2013-5-15,92.1,54.1,0.0,66.3,39.6,0.0,100,36,31,30.05,29.66,3,1,15,0.00
2013-5-16,73.9,71.7,59.4,59.4,53.7,39.5,82,54,48,29.82,29.74,1,1,1,0.00
2013-5-17,82.7,69.9,59.3,63.3,59.3,0.0,96,73,48,30.09,29.90,2,0,8,0.00
2013-5-18,71.3,65.8,61.7,65.2,63.0,61.7,100,91,80,30.18,30.07,1,0,5,0.00
2013-5-19,80.6,67.2,59.6,80.6,64.7,58.8,100,93,82,30.21,30.09,1,0,6,0.00
2013-5-20,85.3,75.5,64.8,70.8,67.8,64.1,100,80,61,30.15,29.92,2,0,8,0.00
2013-5-21,85.3,85.3,85.3,70.8,70.8,70.8,62,62,62,29.93,29.90,0,0,0,0.00